Airfield :
LOGIN :

Register | Disclaimer

   EN    FR    IT 

 










Legend :    VFR   Marginal VFR   IFR   Intensive IFR   Very Intensive IFR
Visi :
Ceiling :
>= 8 km
>= 3000ft
5 to 8 km
1000 to 3000 ft
1500m to 5 km
500 to 1000 ft
800 to 1500m
200 to 500 ft
< 800m
< 200 ft
Symbols :   Thunderstorms  Fog  Heavy snow  Heavy precipitations  Wind > 20 kt
SIGMETs :     Misc.  Thunderstorms  Icing  Turbulence  Mountain Waves  Volcanic Ashes






- Airport Elevation : 34 ft
- IATA code : BLK


EGNH - Blackpool

CURRENT METAR :
  • 281820Z 06012KT 9999 SCT032 06/00 Q1038

EXPIRED METARs :
  • 281750Z 07016KT 9999 VCSH SCT025 07/00 Q1038
  • 281720Z 05015G25KT 9999 VCSH SCT022 07/01 Q1037
  • 281650Z 06015KT 9999 VCSH FEW016 BKN038 08/00 Q1037
  • 281620Z 06016G27KT 020V080 9999 FEW018 BKN035 08/// Q1037
  • 281550Z 06016KT 9999 FEW016 BKN049 09/00 Q1037

TAF TAF EGNH
Valid from the 28 at 18:00 until the 28 at 20:00 UTC


281654Z 2818/2820 05014KT 9999 SCT035
TEMPO 2818/2820 06017G27KT
ATIS : +44 1253 343 434 (x8315)



MET'MAP, your aeronautical weather chart ! - Copyright ORBIFLY December 2007 - Disclaimer

ORBIFLY MET'MAP TEAM :

Programming & Development : Alexandra Zaïnal
Concept & original design : Baudouin d'Aumeries
Assistance for programming : Marc-Olivier Méhu
Technical & hardware support : Manuel Goepfert

Contact : metmap@orbifly.com




SOURCES & CREDITS :

   NOAA